sensor_id;sensor_type;location;lat;lon;timestamp;temperature;humidity
39345;DHT22;25061;51.954;6.996;2022-07-29T00:01:19;17.60;99.90
39345;DHT22;25061;51.954;6.996;2022-07-29T00:03:45;17.60;99.90
39345;DHT22;25061;51.954;6.996;2022-07-29T00:06:10;17.60;99.90
39345;DHT22;25061;51.954;6.996;2022-07-29T00:08:36;17.60;99.90
39345;DHT22;25061;51.954;6.996;2022-07-29T00:11:01;17.70;99.90
39345;DHT22;25061;51.954;6.996;2022-07-29T00:13:27;17.60;99.90
39345;DHT22;25061;51.954;6.996;2022-07-29T00:15:53;17.60;99.90
39345;DHT22;25061;51.954;6.996;2022-07-29T00:18:18;17.60;99.90
39345;DHT22;25061;51.954;6.996;2022-07-29T00:20:44;17.50;99.90
39345;DHT22;25061;51.954;6.996;2022-07-29T00:23:09;17.50;99.90
39345;DHT22;25061;51.954;6.996;2022-07-29T00:25:35;17.50;99.90
39345;DHT22;25061;51.954;6.996;2022-07-29T00:28:00;17.40;99.90
39345;DHT22;25061;51.954;6.996;2022-07-29T00:30:26;17.30;99.90
39345;DHT22;25061;51.954;6.996;2022-07-29T00:32:51;17.30;99.90
39345;DHT22;25061;51.954;6.996;2022-07-29T00:35:17;17.40;99.90
39345;DHT22;25061;51.954;6.996;2022-07-29T00:38:01;17.30;99.90
39345;DHT22;25061;51.954;6.996;2022-07-29T00:40:27;17.30;99.90
39345;DHT22;25061;51.954;6.996;2022-07-29T00:42:53;17.20;99.90
39345;DHT22;25061;51.954;6.996;2022-07-29T00:45:18;17.20;99.90
39345;DHT22;25061;51.954;6.996;2022-07-29T00:47:45;17.20;99.90
39345;DHT22;25061;51.954;6.996;2022-07-29T00:50:12;17.30;99.90
39345;DHT22;25061;51.954;6.996;2022-07-29T00:52:39;17.30;99.90
39345;DHT22;25061;51.954;6.996;2022-07-29T00:55:11;17.30;99.90
39345;DHT22;25061;51.954;6.996;2022-07-29T00:57:47;17.20;99.90
39345;DHT22;25061;51.954;6.996;2022-07-29T01:00:17;17.10;99.90
39345;DHT22;25061;51.954;6.996;2022-07-29T01:02:47;17.10;99.90
39345;DHT22;25061;51.954;6.996;2022-07-29T01:05:17;17.10;99.90
39345;DHT22;25061;51.954;6.996;2022-07-29T01:07:44;17.10;99.90
39345;DHT22;25061;51.954;6.996;2022-07-29T01:10:12;17.10;99.90
39345;DHT22;25061;51.954;6.996;2022-07-29T01:12:39;17.00;99.90
39345;DHT22;25061;51.954;6.996;2022-07-29T01:15:07;17.00;99.90
39345;DHT22;25061;51.954;6.996;2022-07-29T01:18:03;17.00;99.90
39345;DHT22;25061;51.954;6.996;2022-07-29T01:31:51;17.00;99.90
39345;DHT22;25061;51.954;6.996;2022-07-29T01:34:27;16.80;99.90
39345;DHT22;25061;51.954;6.996;2022-07-29T01:37:15;16.70;99.90
39345;DHT22;25061;51.954;6.996;2022-07-29T01:39:47;16.60;99.90
39345;DHT22;25061;51.954;6.996;2022-07-29T01:42:15;16.60;99.90
39345;DHT22;25061;51.954;6.996;2022-07-29T01:44:54;16.70;99.90
39345;DHT22;25061;51.954;6.996;2022-07-29T01:47:25;16.60;99.90
39345;DHT22;25061;51.954;6.996;2022-07-29T01:49:54;16.50;99.90
39345;DHT22;25061;51.954;6.996;2022-07-29T01:52:31;16.60;99.90
39345;DHT22;25061;51.954;6.996;2022-07-29T01:55:01;16.60;99.90
39345;DHT22;25061;51.954;6.996;2022-07-29T01:57:29;16.50;99.90
39345;DHT22;25061;51.954;6.996;2022-07-29T01:59:57;16.50;99.90
39345;DHT22;25061;51.954;6.996;2022-07-29T02:02:24;16.40;99.90
39345;DHT22;25061;51.954;6.996;2022-07-29T02:04:52;16.30;99.90
39345;DHT22;25061;51.954;6.996;2022-07-29T02:07:21;16.30;99.90
39345;DHT22;25061;51.954;6.996;2022-07-29T02:09:49;16.30;99.90
39345;DHT22;25061;51.954;6.996;2022-07-29T02:12:18;16.30;99.90
39345;DHT22;25061;51.954;6.996;2022-07-29T02:14:47;16.20;99.90
39345;DHT22;25061;51.954;6.996;2022-07-29T02:17:22;16.20;99.90
39345;DHT22;25061;51.954;6.996;2022-07-29T02:19:49;16.10;99.90
39345;DHT22;25061;51.954;6.996;2022-07-29T02:22:16;16.20;99.90
39345;DHT22;25061;51.954;6.996;2022-07-29T02:24:45;16.30;99.90
39345;DHT22;25061;51.954;6.996;2022-07-29T02:27:12;16.30;99.90
39345;DHT22;25061;51.954;6.996;2022-07-29T02:29:39;16.20;99.90
39345;DHT22;25061;51.954;6.996;2022-07-29T02:32:07;16.20;99.90
39345;DHT22;25061;51.954;6.996;2022-07-29T02:34:34;16.10;99.90
39345;DHT22;25061;51.954;6.996;2022-07-29T02:37:01;16.00;99.90
39345;DHT22;25061;51.954;6.996;2022-07-29T02:39:28;16.20;99.90
39345;DHT22;25061;51.954;6.996;2022-07-29T02:41:59;16.00;99.90
39345;DHT22;25061;51.954;6.996;2022-07-29T02:44:27;15.90;99.90
39345;DHT22;25061;51.954;6.996;2022-07-29T02:50:04;15.80;99.90
39345;DHT22;25061;51.954;6.996;2022-07-29T02:52:44;15.70;99.90
39345;DHT22;25061;51.954;6.996;2022-07-29T02:55:32;15.80;99.90
39345;DHT22;25061;51.954;6.996;2022-07-29T02:58:09;15.80;99.90
39345;DHT22;25061;51.954;6.996;2022-07-29T03:00:39;15.80;99.90
39345;DHT22;25061;51.954;6.996;2022-07-29T03:03:11;15.80;99.90
39345;DHT22;25061;51.954;6.996;2022-07-29T03:05:37;15.80;99.90
39345;DHT22;25061;51.954;6.996;2022-07-29T03:08:06;15.80;99.90
39345;DHT22;25061;51.954;6.996;2022-07-29T03:10:32;15.90;99.90
39345;DHT22;25061;51.954;6.996;2022-07-29T03:13:00;15.90;99.90
39345;DHT22;25061;51.954;6.996;2022-07-29T03:15:27;15.90;99.90
39345;DHT22;25061;51.954;6.996;2022-07-29T03:17:53;15.80;99.90
39345;DHT22;25061;51.954;6.996;2022-07-29T03:20:20;15.80;99.90
39345;DHT22;25061;51.954;6.996;2022-07-29T03:22:46;15.80;99.90
39345;DHT22;25061;51.954;6.996;2022-07-29T03:25:13;15.60;99.90
39345;DHT22;25061;51.954;6.996;2022-07-29T03:27:39;15.70;99.90
39345;DHT22;25061;51.954;6.996;2022-07-29T03:30:06;15.70;99.90
39345;DHT22;25061;51.954;6.996;2022-07-29T03:32:32;15.60;99.90
39345;DHT22;25061;51.954;6.996;2022-07-29T03:34:58;15.60;99.90
39345;DHT22;25061;51.954;6.996;2022-07-29T03:37:23;15.80;99.90
39345;DHT22;25061;51.954;6.996;2022-07-29T03:39:50;16.00;99.90
39345;DHT22;25061;51.954;6.996;2022-07-29T03:42:19;16.30;99.90
39345;DHT22;25061;51.954;6.996;2022-07-29T03:44:47;16.40;99.90
39345;DHT22;25061;51.954;6.996;2022-07-29T03:47:14;16.10;99.90
39345;DHT22;25061;51.954;6.996;2022-07-29T03:49:40;16.10;99.90
39345;DHT22;25061;51.954;6.996;2022-07-29T03:52:07;16.20;99.90
39345;DHT22;25061;51.954;6.996;2022-07-29T03:54:34;16.10;99.90
39345;DHT22;25061;51.954;6.996;2022-07-29T03:57:01;16.50;99.90
39345;DHT22;25061;51.954;6.996;2022-07-29T03:59:27;16.30;99.90
39345;DHT22;25061;51.954;6.996;2022-07-29T04:01:53;16.70;99.90
39345;DHT22;25061;51.954;6.996;2022-07-29T04:04:21;17.00;99.90
39345;DHT22;25061;51.954;6.996;2022-07-29T04:06:47;16.70;99.90
39345;DHT22;25061;51.954;6.996;2022-07-29T04:09:12;16.50;99.90
39345;DHT22;25061;51.954;6.996;2022-07-29T04:11:39;16.70;99.90
39345;DHT22;25061;51.954;6.996;2022-07-29T04:14:05;16.70;99.90
39345;DHT22;25061;51.954;6.996;2022-07-29T04:16:31;16.80;99.90
39345;DHT22;25061;51.954;6.996;2022-07-29T04:18:57;16.50;99.90
39345;DHT22;25061;51.954;6.996;2022-07-29T04:21:23;16.40;99.90
39345;DHT22;25061;51.954;6.996;2022-07-29T04:23:48;16.70;99.90
39345;DHT22;25061;51.954;6.996;2022-07-29T04:26:16;16.60;99.90
39345;DHT22;25061;51.954;6.996;2022-07-29T04:28:41;16.20;99.90
39345;DHT22;25061;51.954;6.996;2022-07-29T04:31:08;16.00;99.90
39345;DHT22;25061;51.954;6.996;2022-07-29T04:33:34;16.20;99.90
39345;DHT22;25061;51.954;6.996;2022-07-29T04:35:59;16.60;99.90
39345;DHT22;25061;51.954;6.996;2022-07-29T04:38:25;16.30;99.90
39345;DHT22;25061;51.954;6.996;2022-07-29T04:40:50;16.20;99.90
39345;DHT22;25061;51.954;6.996;2022-07-29T04:43:16;16.20;99.90
39345;DHT22;25061;51.954;6.996;2022-07-29T04:45:42;16.80;99.90
39345;DHT22;25061;51.954;6.996;2022-07-29T04:48:07;16.70;99.90
39345;DHT22;25061;51.954;6.996;2022-07-29T04:50:33;16.20;99.90
39345;DHT22;25061;51.954;6.996;2022-07-29T04:52:58;16.30;99.90
39345;DHT22;25061;51.954;6.996;2022-07-29T04:55:24;16.50;99.90
39345;DHT22;25061;51.954;6.996;2022-07-29T04:57:50;16.60;99.90
39345;DHT22;25061;51.954;6.996;2022-07-29T05:00:16;16.20;99.90
39345;DHT22;25061;51.954;6.996;2022-07-29T05:02:42;16.00;99.90
39345;DHT22;25061;51.954;6.996;2022-07-29T05:05:07;15.70;99.90
39345;DHT22;25061;51.954;6.996;2022-07-29T05:07:33;15.90;99.90
39345;DHT22;25061;51.954;6.996;2022-07-29T05:09:59;16.00;99.90
39345;DHT22;25061;51.954;6.996;2022-07-29T05:12:25;16.00;99.90
39345;DHT22;25061;51.954;6.996;2022-07-29T05:14:50;15.90;99.90
39345;DHT22;25061;51.954;6.996;2022-07-29T05:17:16;16.00;99.90
39345;DHT22;25061;51.954;6.996;2022-07-29T05:19:42;16.20;99.90
39345;DHT22;25061;51.954;6.996;2022-07-29T05:22:07;16.10;99.90
39345;DHT22;25061;51.954;6.996;2022-07-29T05:24:33;16.00;99.90
39345;DHT22;25061;51.954;6.996;2022-07-29T05:26:58;16.40;99.90
39345;DHT22;25061;51.954;6.996;2022-07-29T05:29:24;16.40;99.90
39345;DHT22;25061;51.954;6.996;2022-07-29T05:31:49;16.30;99.90
39345;DHT22;25061;51.954;6.996;2022-07-29T05:34:17;16.30;99.90
39345;DHT22;25061;51.954;6.996;2022-07-29T05:36:42;16.20;99.90
39345;DHT22;25061;51.954;6.996;2022-07-29T05:39:08;15.90;99.90
39345;DHT22;25061;51.954;6.996;2022-07-29T05:41:33;15.80;99.90
39345;DHT22;25061;51.954;6.996;2022-07-29T05:43:59;15.80;99.90
39345;DHT22;25061;51.954;6.996;2022-07-29T05:46:25;15.60;99.90
39345;DHT22;25061;51.954;6.996;2022-07-29T05:48:51;15.50;99.90
39345;DHT22;25061;51.954;6.996;2022-07-29T05:51:17;15.60;99.90
39345;DHT22;25061;51.954;6.996;2022-07-29T05:53:44;16.10;99.90
39345;DHT22;25061;51.954;6.996;2022-07-29T05:56:10;16.50;99.90
39345;DHT22;25061;51.954;6.996;2022-07-29T05:58:35;16.50;99.90
39345;DHT22;25061;51.954;6.996;2022-07-29T06:01:01;16.60;99.90
39345;DHT22;25061;51.954;6.996;2022-07-29T06:03:28;16.30;99.90
39345;DHT22;25061;51.954;6.996;2022-07-29T06:05:53;16.50;99.90
39345;DHT22;25061;51.954;6.996;2022-07-29T06:08:19;16.70;99.90
39345;DHT22;25061;51.954;6.996;2022-07-29T06:10:45;16.40;99.90
39345;DHT22;25061;51.954;6.996;2022-07-29T06:13:13;15.90;99.90
39345;DHT22;25061;51.954;6.996;2022-07-29T06:15:41;15.90;99.90
39345;DHT22;25061;51.954;6.996;2022-07-29T06:18:07;16.40;99.90
39345;DHT22;25061;51.954;6.996;2022-07-29T06:20:34;16.50;99.90
39345;DHT22;25061;51.954;6.996;2022-07-29T06:23:00;16.10;99.90
39345;DHT22;25061;51.954;6.996;2022-07-29T06:25:27;16.20;99.90
39345;DHT22;25061;51.954;6.996;2022-07-29T06:27:56;16.20;99.90
39345;DHT22;25061;51.954;6.996;2022-07-29T06:30:22;15.80;99.90
39345;DHT22;25061;51.954;6.996;2022-07-29T06:32:47;15.30;99.90
39345;DHT22;25061;51.954;6.996;2022-07-29T06:35:13;15.00;99.90
39345;DHT22;25061;51.954;6.996;2022-07-29T06:37:39;15.00;99.90
39345;DHT22;25061;51.954;6.996;2022-07-29T06:40:04;15.00;99.90
39345;DHT22;25061;51.954;6.996;2022-07-29T06:42:48;14.90;99.90
39345;DHT22;25061;51.954;6.996;2022-07-29T06:45:14;14.60;99.90
39345;DHT22;25061;51.954;6.996;2022-07-29T06:47:40;14.70;99.90
39345;DHT22;25061;51.954;6.996;2022-07-29T06:50:06;14.80;99.90
39345;DHT22;25061;51.954;6.996;2022-07-29T06:52:31;14.90;99.90
39345;DHT22;25061;51.954;6.996;2022-07-29T06:54:57;14.90;99.90
39345;DHT22;25061;51.954;6.996;2022-07-29T06:57:22;15.00;99.90
39345;DHT22;25061;51.954;6.996;2022-07-29T06:59:48;14.90;99.90
39345;DHT22;25061;51.954;6.996;2022-07-29T07:02:14;15.10;99.90
39345;DHT22;25061;51.954;6.996;2022-07-29T07:04:39;15.20;99.90
39345;DHT22;25061;51.954;6.996;2022-07-29T07:07:05;15.00;99.90
39345;DHT22;25061;51.954;6.996;2022-07-29T07:09:30;15.20;99.90
39345;DHT22;25061;51.954;6.996;2022-07-29T07:11:56;15.30;99.90
39345;DHT22;25061;51.954;6.996;2022-07-29T07:14:22;15.30;99.90
39345;DHT22;25061;51.954;6.996;2022-07-29T07:16:47;15.50;99.90
39345;DHT22;25061;51.954;6.996;2022-07-29T07:19:13;15.50;99.90
39345;DHT22;25061;51.954;6.996;2022-07-29T07:21:39;15.30;99.90
39345;DHT22;25061;51.954;6.996;2022-07-29T07:24:05;15.30;99.90
39345;DHT22;25061;51.954;6.996;2022-07-29T07:26:30;15.20;99.90
39345;DHT22;25061;51.954;6.996;2022-07-29T07:28:56;15.10;99.90
39345;DHT22;25061;51.954;6.996;2022-07-29T07:31:22;14.90;99.90
39345;DHT22;25061;51.954;6.996;2022-07-29T07:33:47;14.90;99.90
39345;DHT22;25061;51.954;6.996;2022-07-29T07:36:13;15.00;99.90
39345;DHT22;25061;51.954;6.996;2022-07-29T07:38:39;14.90;99.90
39345;DHT22;25061;51.954;6.996;2022-07-29T07:41:04;14.90;99.90
39345;DHT22;25061;51.954;6.996;2022-07-29T07:43:30;14.90;99.90
39345;DHT22;25061;51.954;6.996;2022-07-29T07:45:56;15.00;99.90
39345;DHT22;25061;51.954;6.996;2022-07-29T07:48:21;15.20;99.90
39345;DHT22;25061;51.954;6.996;2022-07-29T07:50:47;15.10;99.90
39345;DHT22;25061;51.954;6.996;2022-07-29T07:53:14;14.90;99.90
39345;DHT22;25061;51.954;6.996;2022-07-29T07:55:40;14.90;99.90
39345;DHT22;25061;51.954;6.996;2022-07-29T07:58:06;15.00;99.90
39345;DHT22;25061;51.954;6.996;2022-07-29T08:00:32;15.00;99.90
39345;DHT22;25061;51.954;6.996;2022-07-29T08:02:58;15.30;99.90
39345;DHT22;25061;51.954;6.996;2022-07-29T08:05:23;15.30;99.90
39345;DHT22;25061;51.954;6.996;2022-07-29T08:07:49;15.10;99.90
39345;DHT22;25061;51.954;6.996;2022-07-29T08:10:16;15.10;99.90
39345;DHT22;25061;51.954;6.996;2022-07-29T08:13:05;15.20;99.90
39345;DHT22;25061;51.954;6.996;2022-07-29T08:15:31;15.40;99.90
39345;DHT22;25061;51.954;6.996;2022-07-29T08:17:57;15.50;99.90
39345;DHT22;25061;51.954;6.996;2022-07-29T08:20:22;15.40;99.90
39345;DHT22;25061;51.954;6.996;2022-07-29T08:22:48;15.30;99.90
39345;DHT22;25061;51.954;6.996;2022-07-29T08:25:14;15.50;99.90
39345;DHT22;25061;51.954;6.996;2022-07-29T08:27:39;15.70;99.90
39345;DHT22;25061;51.954;6.996;2022-07-29T08:30:05;15.80;99.90
39345;DHT22;25061;51.954;6.996;2022-07-29T08:32:31;15.80;99.90
39345;DHT22;25061;51.954;6.996;2022-07-29T08:34:57;15.70;99.90
39345;DHT22;25061;51.954;6.996;2022-07-29T08:37:22;15.70;99.90
39345;DHT22;25061;51.954;6.996;2022-07-29T08:39:48;15.80;99.90
39345;DHT22;25061;51.954;6.996;2022-07-29T08:42:13;16.10;99.90
39345;DHT22;25061;51.954;6.996;2022-07-29T08:44:42;16.80;99.90
39345;DHT22;25061;51.954;6.996;2022-07-29T08:47:07;17.60;99.90
39345;DHT22;25061;51.954;6.996;2022-07-29T08:49:34;17.70;99.90
39345;DHT22;25061;51.954;6.996;2022-07-29T08:52:01;17.10;99.90
39345;DHT22;25061;51.954;6.996;2022-07-29T08:54:27;17.10;99.90
39345;DHT22;25061;51.954;6.996;2022-07-29T08:56:53;17.70;99.90
39345;DHT22;25061;51.954;6.996;2022-07-29T08:59:20;17.00;99.90
39345;DHT22;25061;51.954;6.996;2022-07-29T09:01:48;17.00;99.90
39345;DHT22;25061;51.954;6.996;2022-07-29T09:04:17;16.90;99.90
39345;DHT22;25061;51.954;6.996;2022-07-29T09:06:46;16.80;99.90
39345;DHT22;25061;51.954;6.996;2022-07-29T09:09:12;16.90;99.90
39345;DHT22;25061;51.954;6.996;2022-07-29T09:11:39;16.70;99.90
39345;DHT22;25061;51.954;6.996;2022-07-29T09:14:05;16.60;99.90
39345;DHT22;25061;51.954;6.996;2022-07-29T09:16:50;16.50;99.90
39345;DHT22;25061;51.954;6.996;2022-07-29T09:19:20;16.70;99.90
39345;DHT22;25061;51.954;6.996;2022-07-29T09:21:46;16.40;99.90
39345;DHT22;25061;51.954;6.996;2022-07-29T09:26:58;16.10;99.90
39345;DHT22;25061;51.954;6.996;2022-07-29T09:29:24;15.70;99.90
39345;DHT22;25061;51.954;6.996;2022-07-29T09:31:54;15.50;99.90
39345;DHT22;25061;51.954;6.996;2022-07-29T09:34:24;15.40;99.90
39345;DHT22;25061;51.954;6.996;2022-07-29T09:36:52;15.30;99.90
39345;DHT22;25061;51.954;6.996;2022-07-29T09:41:56;15.40;99.90
39345;DHT22;25061;51.954;6.996;2022-07-29T09:44:46;15.20;99.90
39345;DHT22;25061;51.954;6.996;2022-07-29T09:47:14;15.20;99.90
39345;DHT22;25061;51.954;6.996;2022-07-29T09:49:57;15.20;99.90
39345;DHT22;25061;51.954;6.996;2022-07-29T09:52:27;15.40;99.90
39345;DHT22;25061;51.954;6.996;2022-07-29T09:54:52;15.60;99.90
39345;DHT22;25061;51.954;6.996;2022-07-29T09:57:27;15.60;99.90
39345;DHT22;25061;51.954;6.996;2022-07-29T10:02:21;15.40;99.90
39345;DHT22;25061;51.954;6.996;2022-07-29T10:04:47;15.40;99.90
39345;DHT22;25061;51.954;6.996;2022-07-29T10:07:13;15.60;99.90
39345;DHT22;25061;51.954;6.996;2022-07-29T10:09:38;15.70;99.90
39345;DHT22;25061;51.954;6.996;2022-07-29T10:12:09;15.90;99.90
39345;DHT22;25061;51.954;6.996;2022-07-29T10:14:35;16.00;99.90
39345;DHT22;25061;51.954;6.996;2022-07-29T10:17:02;15.90;99.90
39345;DHT22;25061;51.954;6.996;2022-07-29T10:19:29;15.90;99.90
39345;DHT22;25061;51.954;6.996;2022-07-29T10:21:57;15.90;99.90
39345;DHT22;25061;51.954;6.996;2022-07-29T10:24:28;15.60;99.90
39345;DHT22;25061;51.954;6.996;2022-07-29T10:26:56;15.40;99.90
39345;DHT22;25061;51.954;6.996;2022-07-29T10:29:23;15.30;99.90
39345;DHT22;25061;51.954;6.996;2022-07-29T10:32:11;15.30;99.90
39345;DHT22;25061;51.954;6.996;2022-07-29T10:34:54;15.40;99.90
39345;DHT22;25061;51.954;6.996;2022-07-29T10:37:55;15.60;99.90
39345;DHT22;25061;51.954;6.996;2022-07-29T10:43:34;15.50;99.90
39345;DHT22;25061;51.954;6.996;2022-07-29T10:46:03;15.80;99.90
39345;DHT22;25061;51.954;6.996;2022-07-29T10:48:29;15.80;99.90
39345;DHT22;25061;51.954;6.996;2022-07-29T10:53:46;15.90;99.90
39345;DHT22;25061;51.954;6.996;2022-07-29T10:56:26;16.00;99.90
39345;DHT22;25061;51.954;6.996;2022-07-29T11:01:43;15.80;99.90
39345;DHT22;25061;51.954;6.996;2022-07-29T11:04:09;15.90;99.90
39345;DHT22;25061;51.954;6.996;2022-07-29T11:07:06;16.30;99.90
39345;DHT22;25061;51.954;6.996;2022-07-29T11:09:33;16.40;99.90
39345;DHT22;25061;51.954;6.996;2022-07-29T11:11:58;16.30;99.90
39345;DHT22;25061;51.954;6.996;2022-07-29T11:14:56;16.20;99.90
39345;DHT22;25061;51.954;6.996;2022-07-29T11:17:22;16.10;99.90
39345;DHT22;25061;51.954;6.996;2022-07-29T11:19:47;16.00;99.90
39345;DHT22;25061;51.954;6.996;2022-07-29T11:22:32;15.90;99.90
39345;DHT22;25061;51.954;6.996;2022-07-29T11:25:17;15.70;99.90
39345;DHT22;25061;51.954;6.996;2022-07-29T11:27:46;15.90;99.90
39345;DHT22;25061;51.954;6.996;2022-07-29T11:30:12;16.00;99.90
39345;DHT22;25061;51.954;6.996;2022-07-29T11:32:41;16.10;99.90
39345;DHT22;25061;51.954;6.996;2022-07-29T11:35:21;16.10;99.90
39345;DHT22;25061;51.954;6.996;2022-07-29T11:38:23;16.20;99.90
39345;DHT22;25061;51.954;6.996;2022-07-29T11:41:18;16.20;99.90
39345;DHT22;25061;51.954;6.996;2022-07-29T11:43:58;16.10;99.90
39345;DHT22;25061;51.954;6.996;2022-07-29T11:46:47;16.00;99.90
39345;DHT22;25061;51.954;6.996;2022-07-29T11:49:27;16.20;99.90
39345;DHT22;25061;51.954;6.996;2022-07-29T11:51:55;16.20;99.90
39345;DHT22;25061;51.954;6.996;2022-07-29T11:54:26;16.30;99.90
39345;DHT22;25061;51.954;6.996;2022-07-29T11:56:52;16.70;99.90
39345;DHT22;25061;51.954;6.996;2022-07-29T11:59:19;16.80;99.90
39345;DHT22;25061;51.954;6.996;2022-07-29T12:01:52;16.80;99.90
39345;DHT22;25061;51.954;6.996;2022-07-29T12:04:18;17.00;99.90
39345;DHT22;25061;51.954;6.996;2022-07-29T12:06:55;17.30;99.90
39345;DHT22;25061;51.954;6.996;2022-07-29T12:09:22;17.50;99.90
39345;DHT22;25061;51.954;6.996;2022-07-29T12:11:49;17.70;99.90
39345;DHT22;25061;51.954;6.996;2022-07-29T12:14:32;18.00;99.90
39345;DHT22;25061;51.954;6.996;2022-07-29T12:16:58;18.10;99.90
39345;DHT22;25061;51.954;6.996;2022-07-29T12:19:25;18.40;99.90
39345;DHT22;25061;51.954;6.996;2022-07-29T12:21:52;18.30;99.90
39345;DHT22;25061;51.954;6.996;2022-07-29T12:24:19;18.40;99.90
39345;DHT22;25061;51.954;6.996;2022-07-29T12:26:54;18.40;99.90
39345;DHT22;25061;51.954;6.996;2022-07-29T12:29:21;18.90;99.90
39345;DHT22;25061;51.954;6.996;2022-07-29T12:31:51;19.10;99.90
39345;DHT22;25061;51.954;6.996;2022-07-29T12:34:20;19.00;99.90
39345;DHT22;25061;51.954;6.996;2022-07-29T12:36:46;19.30;99.90
39345;DHT22;25061;51.954;6.996;2022-07-29T12:39:12;19.30;99.90
39345;DHT22;25061;51.954;6.996;2022-07-29T12:41:38;19.20;99.90
39345;DHT22;25061;51.954;6.996;2022-07-29T12:44:04;19.40;99.90
39345;DHT22;25061;51.954;6.996;2022-07-29T12:46:30;19.50;99.90
39345;DHT22;25061;51.954;6.996;2022-07-29T12:48:55;19.80;99.90
39345;DHT22;25061;51.954;6.996;2022-07-29T12:51:48;19.80;99.90
39345;DHT22;25061;51.954;6.996;2022-07-29T12:54:15;19.90;99.90
39345;DHT22;25061;51.954;6.996;2022-07-29T12:56:42;20.10;99.90
39345;DHT22;25061;51.954;6.996;2022-07-29T12:59:18;20.10;99.90
39345;DHT22;25061;51.954;6.996;2022-07-29T13:01:45;20.10;99.90
39345;DHT22;25061;51.954;6.996;2022-07-29T13:04:27;19.60;99.90
39345;DHT22;25061;51.954;6.996;2022-07-29T13:07:04;19.60;99.90
39345;DHT22;25061;51.954;6.996;2022-07-29T13:09:43;20.10;99.90
39345;DHT22;25061;51.954;6.996;2022-07-29T13:12:11;20.40;99.90
39345;DHT22;25061;51.954;6.996;2022-07-29T13:14:42;20.10;99.90
39345;DHT22;25061;51.954;6.996;2022-07-29T13:17:15;20.50;99.90
39345;DHT22;25061;51.954;6.996;2022-07-29T13:19:47;20.70;99.90
39345;DHT22;25061;51.954;6.996;2022-07-29T13:22:15;21.00;99.90
39345;DHT22;25061;51.954;6.996;2022-07-29T13:24:47;21.10;99.90
39345;DHT22;25061;51.954;6.996;2022-07-29T13:27:15;21.00;99.90
39345;DHT22;25061;51.954;6.996;2022-07-29T13:29:41;21.20;99.90
39345;DHT22;25061;51.954;6.996;2022-07-29T13:32:06;21.40;99.90
39345;DHT22;25061;51.954;6.996;2022-07-29T13:34:32;21.20;99.90
39345;DHT22;25061;51.954;6.996;2022-07-29T13:36:58;21.20;99.90
39345;DHT22;25061;51.954;6.996;2022-07-29T13:39:23;21.30;99.90
39345;DHT22;25061;51.954;6.996;2022-07-29T13:41:49;21.50;99.90
39345;DHT22;25061;51.954;6.996;2022-07-29T13:44:14;21.30;99.90
39345;DHT22;25061;51.954;6.996;2022-07-29T13:46:40;21.30;99.90
39345;DHT22;25061;51.954;6.996;2022-07-29T13:49:06;21.10;99.90
39345;DHT22;25061;51.954;6.996;2022-07-29T13:51:31;20.90;99.90
39345;DHT22;25061;51.954;6.996;2022-07-29T13:53:57;21.00;99.90
39345;DHT22;25061;51.954;6.996;2022-07-29T13:56:22;21.00;99.90
39345;DHT22;25061;51.954;6.996;2022-07-29T13:58:48;20.90;99.90
39345;DHT22;25061;51.954;6.996;2022-07-29T14:01:13;20.90;99.90
39345;DHT22;25061;51.954;6.996;2022-07-29T14:03:39;21.10;99.90
39345;DHT22;25061;51.954;6.996;2022-07-29T14:06:06;21.10;99.90
39345;DHT22;25061;51.954;6.996;2022-07-29T14:08:32;21.20;99.90
39345;DHT22;25061;51.954;6.996;2022-07-29T14:10:58;21.20;99.90
39345;DHT22;25061;51.954;6.996;2022-07-29T14:13:23;21.20;99.90
39345;DHT22;25061;51.954;6.996;2022-07-29T14:15:49;21.30;99.90
39345;DHT22;25061;51.954;6.996;2022-07-29T14:18:14;21.20;99.90
39345;DHT22;25061;51.954;6.996;2022-07-29T14:20:40;21.20;99.90
39345;DHT22;25061;51.954;6.996;2022-07-29T14:23:05;21.20;99.90
39345;DHT22;25061;51.954;6.996;2022-07-29T14:25:31;21.20;99.90
39345;DHT22;25061;51.954;6.996;2022-07-29T14:27:57;21.30;99.90
39345;DHT22;25061;51.954;6.996;2022-07-29T14:30:22;21.30;99.90
39345;DHT22;25061;51.954;6.996;2022-07-29T14:32:48;21.20;99.90
39345;DHT22;25061;51.954;6.996;2022-07-29T14:35:13;21.30;99.90
39345;DHT22;25061;51.954;6.996;2022-07-29T14:37:39;21.30;99.90
39345;DHT22;25061;51.954;6.996;2022-07-29T14:40:05;21.50;99.90
39345;DHT22;25061;51.954;6.996;2022-07-29T14:42:31;21.60;99.90
39345;DHT22;25061;51.954;6.996;2022-07-29T14:44:57;21.90;99.90
39345;DHT22;25061;51.954;6.996;2022-07-29T14:47:23;22.00;99.90
39345;DHT22;25061;51.954;6.996;2022-07-29T14:49:49;21.70;99.90
39345;DHT22;25061;51.954;6.996;2022-07-29T14:52:14;21.70;99.90
39345;DHT22;25061;51.954;6.996;2022-07-29T14:54:40;21.90;99.90
39345;DHT22;25061;51.954;6.996;2022-07-29T14:57:05;21.90;99.90
39345;DHT22;25061;51.954;6.996;2022-07-29T14:59:31;22.00;99.90
39345;DHT22;25061;51.954;6.996;2022-07-29T15:01:57;22.00;99.90
39345;DHT22;25061;51.954;6.996;2022-07-29T15:04:23;22.00;99.90
39345;DHT22;25061;51.954;6.996;2022-07-29T15:06:48;22.10;99.90
39345;DHT22;25061;51.954;6.996;2022-07-29T15:09:14;22.10;99.90
39345;DHT22;25061;51.954;6.996;2022-07-29T15:11:39;22.10;99.90
39345;DHT22;25061;51.954;6.996;2022-07-29T15:14:05;22.10;99.90
39345;DHT22;25061;51.954;6.996;2022-07-29T15:16:32;22.20;99.90
39345;DHT22;25061;51.954;6.996;2022-07-29T15:18:57;22.20;99.90
39345;DHT22;25061;51.954;6.996;2022-07-29T15:21:23;22.30;99.90
39345;DHT22;25061;51.954;6.996;2022-07-29T15:23:49;22.20;99.90
39345;DHT22;25061;51.954;6.996;2022-07-29T15:26:15;22.20;99.90
39345;DHT22;25061;51.954;6.996;2022-07-29T15:28:40;22.40;99.90
39345;DHT22;25061;51.954;6.996;2022-07-29T15:31:06;22.40;99.90
39345;DHT22;25061;51.954;6.996;2022-07-29T15:33:31;22.40;99.90
39345;DHT22;25061;51.954;6.996;2022-07-29T15:35:57;22.50;99.90
39345;DHT22;25061;51.954;6.996;2022-07-29T15:38:22;22.30;99.90
39345;DHT22;25061;51.954;6.996;2022-07-29T15:40:48;22.20;99.90
39345;DHT22;25061;51.954;6.996;2022-07-29T15:43:14;22.30;99.90
39345;DHT22;25061;51.954;6.996;2022-07-29T15:45:40;22.40;99.90
39345;DHT22;25061;51.954;6.996;2022-07-29T15:48:08;22.50;99.90
39345;DHT22;25061;51.954;6.996;2022-07-29T15:50:34;22.60;99.90
39345;DHT22;25061;51.954;6.996;2022-07-29T15:53:00;22.60;99.90
39345;DHT22;25061;51.954;6.996;2022-07-29T15:55:25;22.60;99.90
39345;DHT22;25061;51.954;6.996;2022-07-29T15:57:51;22.50;99.90
39345;DHT22;25061;51.954;6.996;2022-07-29T16:00:17;22.30;99.90
39345;DHT22;25061;51.954;6.996;2022-07-29T16:02:43;22.30;99.90
39345;DHT22;25061;51.954;6.996;2022-07-29T16:05:09;22.30;99.90
39345;DHT22;25061;51.954;6.996;2022-07-29T16:07:36;22.40;99.90